Cleveland, Utah
Current Conditions -  °F | °C
As of 1:53 AM on Friday 24 Oct 2014 (Local Time) from KPUC Reporting Station
Clear Clear  
Wind Chill: 43°   Ceiling: Unl
Heat Index: 47°   Visibility: 10mi
Dew Point: 33°   Wind: 8mph
Humidity: 59%   Direction: 20°NNE
Pressure: 30.25"   Gusts: NA
Location:  39.35°N, 110.85°W
Report Text: KPUC 240753Z AUTO 02007KT 10SM CLR 08/01 A3025 RMK AO2 SLP209 T00830006 TSNO
Loading
Personal Weather Stations






























Interactive Weather Map
Tropical Storm Tracking
New forecast layout! Learn more

10-Day Weather Forecast

Advertisements
Track Severe Weather on mobile